Time;durP1;ratioP1;P1;durP2;ratioP2;P2;SDS_P1;SDS_P2;PMS_P1;PMS_P2;Temp;Humidity;BMP_temperature;BMP_pressure;BME280_temperature;BME280_humidity;BME280_pressure;Samples;Min_cycle;Max_cycle;Signal;HPM_P1;HPM_P2
2023/01/20 00:00:46;;;;;;;3.87;2.87;;;;;;;19.32;49.04;96689.59;4996570;28;20227;-85
2023/01/20 00:03:13;;;;;;;3.17;2.87;;;;;;;19.13;49.27;96652.59;4993173;28;20234;-88
2023/01/20 00:05:49;;;;;;;3.40;3.10;;;;;;;19.23;49.27;96661.31;5003204;28;20202;-87
2023/01/20 00:08:16;;;;;;;4.47;3.30;;;;;;;19.03;49.17;96635.38;4993738;28;20203;-87
2023/01/20 00:10:43;;;;;;;3.13;2.83;;;;;;;19.02;49.17;96631.09;4985293;28;20674;-88
2023/01/20 00:13:09;;;;;;;3.40;3.07;;;;;;;18.36;49.53;96521.63;4977093;28;20311;-85
2023/01/20 00:15:36;;;;;;;3.37;3.07;;;;;;;18.77;49.14;96603.28;4979394;28;21059;-88
2023/01/20 00:18:05;;;;;;;3.50;2.90;;;;;;;19.61;48.99;96740.47;4976642;28;20741;-87
2023/01/20 00:20:34;;;;;;;4.43;3.00;;;;;;;19.61;49.02;96739.59;4998479;28;20323;-88
2023/01/20 00:23:00;;;;;;;3.10;2.80;;;;;;;17.66;48.96;96405.41;4999856;28;20285;-88
2023/01/20 00:25:27;;;;;;;3.27;2.97;;;;;;;19.61;48.98;96740.47;4996649;28;20701;-87
2023/01/20 00:27:54;;;;;;;3.30;3.00;;;;;;;19.60;49.28;96741.28;5011616;28;20206;-88
2023/01/20 00:30:23;;;;;;;4.40;2.60;;;;;;;19.61;48.93;96742.16;4995495;28;20286;-88
2023/01/20 00:32:51;;;;;;;3.40;3.00;;;;;;;19.60;48.77;96748.09;4998007;28;20278;-87
2023/01/20 00:35:17;;;;;;;3.40;2.87;;;;;;;18.93;49.15;96632.56;4993036;28;20226;-88
2023/01/20 00:37:46;;;;;;;3.83;3.00;;;;;;;17.09;49.19;96320.00;4978759;28;21214;-88
2023/01/20 00:40:13;;;;;;;3.47;3.17;;;;;;;19.59;49.04;96742.13;5000724;28;20221;-88
2023/01/20 00:42:39;;;;;;;3.13;2.80;;;;;;;19.21;48.61;96675.69;4989381;28;20222;-88
2023/01/20 00:45:06;;;;;;;3.70;3.30;;;;;;;18.92;49.15;96639.31;4990497;28;20255;-88
2023/01/20 00:47:36;;;;;;;3.10;2.80;;;;;;;19.57;49.14;96761.59;4989454;28;20206;-88
2023/01/20 00:50:03;;;;;;;3.17;2.87;;;;;;;18.78;48.94;96617.75;4980348;28;20206;-87
2023/01/20 00:52:29;;;;;;;2.73;2.53;;;;;;;18.99;49.31;96664.13;4986994;28;20207;-88
2023/01/20 00:54:57;;;;;;;2.97;2.67;;;;;;;19.19;49.04;96702.84;4978093;28;20230;-88
2023/01/20 00:57:24;;;;;;;3.40;2.90;;;;;;;18.54;48.77;96593.34;4981320;28;20761;-88
2023/01/20 00:59:50;;;;;;;4.43;3.33;;;;;;;18.18;49.13;96543.19;4974989;28;20214;-88
2023/01/20 01:02:17;;;;;;;3.27;2.87;;;;;;;19.57;49.07;96770.94;4975901;28;20721;-87
2023/01/20 01:04:49;;;;;;;3.20;2.63;;;;;;;19.56;49.04;96769.19;4985487;28;20226;-85
2023/01/20 01:07:16;;;;;;;3.20;2.90;;;;;;;18.21;49.15;96532.28;5011419;28;20199;-85
2023/01/20 01:09:43;;;;;;;2.80;2.60;;;;;;;18.82;49.15;96641.59;4962096;28;20298;-85
2023/01/20 01:12:11;;;;;;;3.63;3.30;;;;;;;18.70;49.21;96623.47;4975982;28;20651;-85
2023/01/20 01:14:38;;;;;;;3.30;3.00;;;;;;;18.98;49.08;96669.19;4970097;28;20226;-85
2023/01/20 01:17:05;;;;;;;3.57;2.97;;;;;;;19.58;49.19;96776.09;4977112;28;21714;-88
2023/01/20 01:19:31;;;;;;;3.40;2.90;;;;;;;19.59;49.04;96780.34;4995811;28;20702;-87
2023/01/20 01:21:58;;;;;;;3.47;3.13;;;;;;;18.85;49.00;96651.84;4990728;28;20624;-88
2023/01/20 01:24:25;;;;;;;3.03;2.80;;;;;;;18.92;49.19;96661.38;4996688;28;20250;-87
2023/01/20 01:26:52;;;;;;;3.30;3.00;;;;;;;19.40;49.18;96747.59;4983211;28;20210;-88
2023/01/20 01:29:18;;;;;;;2.90;2.70;;;;;;;19.62;48.95;96782.97;4986202;28;20245;-88
2023/01/20 01:31:45;;;;;;;3.57;3.07;;;;;;;13.58;48.64;95745.81;4995619;28;20204;-87
2023/01/20 01:34:12;;;;;;;3.23;2.93;;;;;;;18.75;49.08;96632.09;4973565;28;20233;-88
2023/01/20 01:36:38;;;;;;;3.23;2.93;;;;;;;19.64;48.90;96785.56;4996783;28;20206;-88
2023/01/20 01:39:05;;;;;;;3.57;3.27;;;;;;;19.65;48.97;96789.81;4987019;28;20247;-87
2023/01/20 01:41:32;;;;;;;3.83;2.70;;;;;;;19.02;49.00;96688.81;4976455;28;20285;-87
2023/01/20 01:44:00;;;;;;;3.23;2.93;;;;;;;18.93;48.94;96661.44;4966421;28;20226;-88
2023/01/20 01:46:27;;;;;;;3.83;3.00;;;;;;;19.65;48.61;96785.59;4962254;28;20218;-87
2023/01/20 01:48:54;;;;;;;3.50;3.20;;;;;;;19.66;48.91;96782.22;5009823;28;20204;-88
2023/01/20 01:51:25;;;;;;;3.27;2.97;;;;;;;19.29;48.85;96713.34;4956332;28;20227;-87
2023/01/20 01:54:01;;;;;;;3.27;2.97;;;;;;;19.02;48.92;96661.66;4980573;28;20231;-88
2023/01/20 01:56:28;;;;;;;3.57;2.97;;;;;;;19.06;48.68;96673.63;4980881;28;20226;-85
2023/01/20 01:58:56;;;;;;;3.60;3.30;;;;;;;17.67;48.93;96429.09;4969878;28;20212;-85
2023/01/20 02:01:26;;;;;;;3.30;3.00;;;;;;;19.69;48.78;96773.78;4983718;28;20302;-85
2023/01/20 02:04:07;;;;;;;3.50;3.20;;;;;;;18.94;48.80;96636.81;4991045;28;20281;-85
2023/01/20 02:06:35;;;;;;;3.43;3.00;;;;;;;19.69;48.74;96769.53;4964680;28;20206;-85
2023/01/20 02:09:03;;;;;;;3.87;3.53;;;;;;;19.13;48.98;96672.97;4963328;28;20316;-85
2023/01/20 02:11:30;;;;;;;3.87;3.00;;;;;;;18.09;48.77;96493.81;4972190;28;20235;-85
2023/01/20 02:13:57;;;;;;;3.13;2.83;;;;;;;19.02;48.79;96656.56;4973400;28;20278;-85
2023/01/20 02:16:30;;;;;;;2.80;2.60;;;;;;;19.71;48.68;96767.03;4969433;28;20289;-88
2023/01/20 02:19:00;;;;;;;3.90;3.43;;;;;;;19.70;48.82;96776.38;4978584;28;20593;-88
2023/01/20 02:21:35;;;;;;;3.30;3.00;;;;;;;19.71;48.63;96778.09;4984284;28;20645;-85
2023/01/20 02:24:26;;;;;;;3.23;2.93;;;;;;;19.72;48.65;96778.97;4989025;28;20226;-85
2023/01/20 02:27:04;;;;;;;4.27;3.27;;;;;;;19.72;48.66;96781.53;5014661;28;20231;-85
2023/01/20 02:29:54;;;;;;;3.23;2.93;;;;;;;19.73;48.79;96778.13;4989038;28;20265;-85
2023/01/20 02:32:35;;;;;;;3.43;2.90;;;;;;;19.71;48.84;96780.66;4997274;28;20207;-85
2023/01/20 02:35:11;;;;;;;3.43;3.00;;;;;;;18.39;48.70;96550.59;5004501;28;20300;-85
2023/01/20 02:37:44;;;;;;;3.77;3.20;;;;;;;19.72;48.50;96784.06;4966642;28;20297;-85
2023/01/20 02:40:20;;;;;;;3.50;3.20;;;;;;;19.73;48.55;96779.00;5005035;28;20222;-85
2023/01/20 02:43:05;;;;;;;3.47;3.17;;;;;;;19.73;48.68;96781.56;4994097;28;20371;-85
2023/01/20 02:45:46;;;;;;;3.40;3.10;;;;;;;19.36;48.55;96714.34;5003199;28;20653;-85
2023/01/20 02:48:28;;;;;;;3.20;2.90;;;;;;;19.74;48.46;96784.94;4977508;28;20203;-85
2023/01/20 02:51:13;;;;;;;3.60;3.30;;;;;;;19.37;48.53;96723.72;4959599;28;20202;-85
2023/01/20 02:53:47;;;;;;;3.47;3.17;;;;;;;18.41;48.59;96560.81;4959036;28;20230;-85
2023/01/20 02:56:13;;;;;;;3.10;2.80;;;;;;;18.43;48.45;96575.28;4986199;28;20294;-85
2023/01/20 02:58:50;;;;;;;3.57;3.20;;;;;;;19.42;48.46;96740.00;4982141;28;20209;-85
2023/01/20 03:01:23;;;;;;;3.63;3.17;;;;;;;19.71;48.67;96785.75;4967668;28;20218;-85
2023/01/20 03:03:52;;;;;;;3.50;3.13;;;;;;;19.15;48.50;96694.25;4964099;28;20219;-85
2023/01/20 03:06:21;;;;;;;3.40;3.10;;;;;;;19.75;48.65;96804.53;4973215;28;20210;-85
2023/01/20 03:08:49;;;;;;;4.03;3.00;;;;;;;18.88;48.31;96646.84;4971907;28;20235;-87
2023/01/20 03:11:16;;;;;;;3.33;3.03;;;;;;;18.00;48.28;96503.75;4986961;28;21028;-88
2023/01/20 03:14:05;;;;;;;3.57;3.00;;;;;;;18.57;48.39;96603.63;4984744;28;20269;-88
2023/01/20 03:16:34;;;;;;;3.77;3.40;;;;;;;19.41;48.25;96750.97;4984163;28;20209;-87
2023/01/20 03:19:01;;;;;;;3.03;2.77;;;;;;;18.87;48.46;96663.81;4985565;28;20218;-87
2023/01/20 03:21:28;;;;;;;3.60;3.30;;;;;;;19.05;48.33;96699.06;4975504;28;20251;-88
2023/01/20 03:23:57;;;;;;;3.70;3.40;;;;;;;19.44;48.48;96771.44;5004644;28;20222;-88
2023/01/20 03:26:23;;;;;;;4.00;3.40;;;;;;;19.16;48.42;96721.44;4994614;28;20211;-88
2023/01/20 03:28:50;;;;;;;3.50;3.20;;;;;;;19.16;48.36;96728.22;4981188;28;20558;-87
2023/01/20 03:31:21;;;;;;;3.40;3.10;;;;;;;19.18;48.32;96729.09;4987317;28;20198;-87
2023/01/20 03:33:49;;;;;;;3.33;3.03;;;;;;;18.89;48.29;96691.88;4993495;28;20226;-88
2023/01/20 03:36:23;;;;;;;3.27;2.97;;;;;;;19.49;48.30;96813.19;4983595;28;20227;-88
2023/01/20 03:38:49;;;;;;;3.50;3.17;;;;;;;19.13;48.30;96731.53;4976975;28;20708;-87
2023/01/20 03:41:25;;;;;;;3.83;2.97;;;;;;;19.77;48.41;96846.22;4970101;28;20234;-88
2023/01/20 03:44:07;;;;;;;3.27;2.97;;;;;;;18.43;48.40;96620.19;5012002;28;20249;-88
2023/01/20 03:46:51;;;;;;;4.10;3.60;;;;;;;19.77;48.33;96851.31;4977967;28;20207;-87
2023/01/20 03:49:52;;;;;;;3.30;2.80;;;;;;;19.77;48.30;96851.31;4971698;28;20210;-88
2023/01/20 03:52:28;;;;;;;3.40;3.10;;;;;;;19.76;48.39;96850.47;4961595;28;20199;-88
2023/01/20 03:55:24;;;;;;;3.33;3.03;;;;;;;19.77;48.20;96858.94;4994136;28;20230;-88
2023/01/20 03:58:09;;;;;;;3.53;3.23;;;;;;;19.76;48.30;96865.75;4999559;28;20199;-88
2023/01/20 04:00:38;;;;;;;3.57;3.27;;;;;;;19.53;48.19;96815.00;4986322;28;20225;-88
2023/01/20 04:03:15;;;;;;;3.30;3.00;;;;;;;18.66;48.24;96675.97;4979360;28;20199;-88
2023/01/20 04:05:42;;;;;;;3.40;3.10;;;;;;;19.77;48.38;96861.50;4994869;28;20249;-88
2023/01/20 04:08:09;;;;;;;3.40;3.10;;;;;;;19.44;48.13;96820.72;5002260;28;20235;-88
2023/01/20 04:10:40;;;;;;;3.77;3.40;;;;;;;19.47;47.99;96822.47;4975433;28;20278;-88
2023/01/20 04:13:07;;;;;;;3.23;2.97;;;;;;;18.03;47.88;96585.16;4958249;28;20264;-88
2023/01/20 04:15:43;;;;;;;3.37;3.07;;;;;;;18.23;48.11;96609.44;4978496;28;20286;-88
2023/01/20 04:18:23;;;;;;;3.63;2.73;;;;;;;18.83;48.23;96732.44;4955737;28;20246;-88
2023/01/20 04:20:57;;;;;;;3.40;3.10;;;;;;;18.90;48.28;96724.13;4974585;28;20702;-88
2023/01/20 04:23:34;;;;;;;3.00;2.80;;;;;;;19.40;47.89;96816.38;4983653;28;20207;-87
2023/01/20 04:26:01;;;;;;;3.17;2.93;;;;;;;19.78;48.03;96878.53;4977045;28;20301;-88
2023/01/20 04:28:31;;;;;;;3.27;2.97;;;;;;;15.65;47.98;96174.59;4991606;28;20205;-88
2023/01/20 04:30:57;;;;;;;3.57;3.27;;;;;;;19.49;47.69;96828.50;5013724;28;20286;-88
2023/01/20 04:33:26;;;;;;;3.50;3.20;;;;;;;16.04;48.07;96240.78;4975460;28;20230;-87
2023/01/20 04:35:53;;;;;;;3.83;3.50;;;;;;;18.81;48.14;96722.19;5000689;28;20227;-88
2023/01/20 04:38:20;;;;;;;3.50;3.20;;;;;;;18.70;48.07;96702.34;4968294;28;20207;-87
2023/01/20 04:40:46;;;;;;;3.30;3.00;;;;;;;19.76;47.78;96893.81;4992915;28;20362;-87
2023/01/20 04:43:13;;;;;;;3.13;2.83;;;;;;;19.64;47.96;96870.53;4991538;28;20230;-87
2023/01/20 04:45:40;;;;;;;2.87;2.67;;;;;;;19.78;48.10;96891.28;4990265;28;20200;-87
2023/01/20 04:48:07;;;;;;;3.50;3.00;;;;;;;19.20;48.04;96799.66;4992722;28;20253;-87
2023/01/20 04:50:38;;;;;;;3.20;2.90;;;;;;;19.41;47.99;96837.59;4983666;28;20227;-87
2023/01/20 04:53:05;;;;;;;3.67;3.33;;;;;;;19.23;47.88;96806.50;4983339;28;20716;-87
2023/01/20 04:55:34;;;;;;;3.37;2.97;;;;;;;19.78;48.36;96909.97;4988786;28;20236;-87
2023/01/20 04:58:00;;;;;;;4.00;3.40;;;;;;;19.42;47.76;96839.34;4987703;28;20281;-87
2023/01/20 05:00:27;;;;;;;3.60;3.30;;;;;;;19.79;47.88;96913.41;4990163;28;20203;-88
2023/01/20 05:02:57;;;;;;;3.10;2.90;;;;;;;19.78;47.91;96909.97;4990242;28;20812;-87
2023/01/20 05:05:24;;;;;;;3.30;3.00;;;;;;;19.77;47.99;96915.91;5006808;28;20226;-88
2023/01/20 05:07:59;;;;;;;3.97;3.33;;;;;;;17.80;47.88;96583.66;5006308;28;20198;-87
2023/01/20 05:10:25;;;;;;;2.93;2.73;;;;;;;19.77;47.99;96917.59;4976692;28;20221;-87
2023/01/20 05:12:52;;;;;;;7.57;3.40;;;;;;;19.77;48.89;96927.78;4988690;28;20253;-87
2023/01/20 05:15:18;;;;;;;3.13;2.83;;;;;;;19.21;48.07;96831.94;4991585;28;20261;-88
2023/01/20 05:17:45;;;;;;;3.20;2.90;;;;;;;19.77;48.16;96945.63;4990391;28;20653;-88
2023/01/20 05:20:13;;;;;;;3.53;3.23;;;;;;;19.76;48.31;96941.38;4990665;28;20230;-88
2023/01/20 05:22:39;;;;;;;3.30;3.00;;;;;;;18.36;48.22;96703.09;4984977;28;20223;-88
2023/01/20 05:25:09;;;;;;;3.47;3.17;;;;;;;19.55;48.20;96908.53;4972208;28;20234;-88
2023/01/20 05:27:36;;;;;;;3.00;2.80;;;;;;;19.20;48.30;96858.25;4983971;28;20218;-87
2023/01/20 05:30:04;;;;;;;3.27;2.97;;;;;;;18.84;48.20;96806.28;4990679;28;20203;-89
2023/01/20 05:32:30;;;;;;;3.13;2.93;;;;;;;19.74;48.23;96951.53;4995039;28;20203;-87
2023/01/20 05:34:57;;;;;;;3.50;3.20;;;;;;;19.75;48.33;96960.06;4987153;28;20278;-87
2023/01/20 05:37:26;;;;;;;3.50;3.20;;;;;;;19.08;48.28;96840.06;4989313;28;20234;-88
2023/01/20 05:39:53;;;;;;;3.53;3.23;;;;;;;19.58;48.42;96933.22;4972618;28;20210;-87
2023/01/20 05:42:26;;;;;;;3.30;3.00;;;;;;;18.41;48.38;96751.59;4986771;28;20318;-88
2023/01/20 05:44:53;;;;;;;3.33;3.03;;;;;;;15.29;47.99;96211.38;4979027;28;20309;-88
2023/01/20 05:47:19;;;;;;;3.60;3.30;;;;;;;18.12;48.62;96685.41;4985382;28;20219;-88
2023/01/20 05:49:46;;;;;;;5.67;3.47;;;;;;;18.47;48.17;96767.88;4996551;28;20309;-90
2023/01/20 05:52:12;;;;;;;8.17;3.70;;;;;;;14.06;48.13;96073.97;4980810;28;20317;-88
2023/01/20 05:54:39;;;;;;;10.03;3.87;;;;;;;19.75;48.28;96972.78;4971870;28;20251;-89
2023/01/20 05:57:06;;;;;;;5.03;3.47;;;;;;;18.36;48.32;96733.59;4993251;28;20207;-89
2023/01/20 05:59:32;;;;;;;4.37;3.30;;;;;;;19.75;47.96;96976.19;4991528;28;20199;-89
2023/01/20 06:01:59;;;;;;;6.00;3.30;;;;;;;17.79;48.36;96650.50;4974909;28;20229;-88
2023/01/20 06:04:25;;;;;;;6.87;3.40;;;;;;;19.05;48.06;96865.47;4993559;28;20273;-89
2023/01/20 06:06:52;;;;;;;6.80;4.20;;;;;;;19.75;47.63;96996.59;4972567;28;20199;-89
2023/01/20 06:09:18;;;;;;;7.43;5.57;;;;;;;19.24;46.55;96902.47;4963281;28;20199;-89
2023/01/20 06:11:45;;;;;;;7.50;6.70;;;;;;;16.45;43.56;96430.53;4982058;28;20202;-86
2023/01/20 06:14:12;;;;;;;9.37;7.93;;;;;;;18.09;41.79;96709.91;5004429;28;20229;-86
2023/01/20 06:16:38;;;;;;;9.20;8.20;;;;;;;19.69;40.21;96991.31;4988708;28;20230;-88
2023/01/20 06:19:05;;;;;;;9.63;8.53;;;;;;;15.65;39.37;96300.34;4983707;28;20203;-87
2023/01/20 06:21:31;;;;;;;10.77;9.50;;;;;;;19.64;38.31;96997.13;4999239;28;20710;-89
2023/01/20 06:23:58;;;;;;;10.67;9.57;;;;;;;17.90;37.87;96700.00;5001147;28;20254;-91
2023/01/20 06:26:24;;;;;;;9.97;8.87;;;;;;;19.60;37.69;96998.72;4986674;28;20207;-88
2023/01/20 06:28:51;;;;;;;11.47;8.67;;;;;;;18.53;38.30;96818.94;4997631;28;20233;-89
2023/01/20 06:31:17;;;;;;;11.37;8.70;;;;;;;18.70;38.06;96858.47;5010478;28;20238;-89
2023/01/20 06:33:44;;;;;;;9.33;8.27;;;;;;;19.55;38.05;97007.94;4996661;28;20241;-88
2023/01/20 06:36:12;;;;;;;10.87;8.63;;;;;;;19.53;38.27;97007.00;4991492;28;20231;-88
2023/01/20 06:38:39;;;;;;;9.43;8.40;;;;;;;19.00;39.61;96915.38;4978016;28;20655;-91
2023/01/20 06:41:07;;;;;;;9.70;7.90;;;;;;;18.09;39.89;96768.38;4981631;28;20215;-90
2023/01/20 06:43:34;;;;;;;9.97;8.23;;;;;;;16.52;40.29;96498.38;4975399;28;20222;-89
2023/01/20 06:46:04;;;;;;;10.00;7.90;;;;;;;17.16;40.91;96608.72;4991792;28;20203;-90
2023/01/20 06:48:30;;;;;;;9.37;7.47;;;;;;;16.46;41.12;96499.88;4966940;28;20863;-89
2023/01/20 06:51:04;;;;;;;8.80;7.30;;;;;;;19.51;41.73;97041.75;4971574;28;20278;-89
2023/01/20 06:53:31;;;;;;;8.87;7.70;;;;;;;18.16;42.21;96846.56;4954509;28;20219;-91
2023/01/20 06:55:58;;;;;;;9.23;7.57;;;;;;;16.99;42.50;96592.09;4973618;28;20694;-89
2023/01/20 06:58:25;;;;;;;7.60;6.80;;;;;;;17.81;42.82;96748.00;4954218;28;20593;-88
2023/01/20 07:00:52;;;;;;;8.63;7.07;;;;;;;18.82;43.10;96919.94;4977364;28;20207;-87
2023/01/20 07:03:18;;;;;;;8.37;6.70;;;;;;;18.59;42.88;96875.09;4976836;28;20204;-87
2023/01/20 07:06:23;;;;;;;6.80;6.03;;;;;;;19.56;43.34;97045.31;4972536;28;20209;-88
2023/01/20 07:08:50;;;;;;;8.20;7.40;;;;;;;18.27;43.11;96824.03;4994383;28;20202;-87
2023/01/20 07:11:17;;;;;;;9.47;7.17;;;;;;;18.45;42.79;96857.69;4970124;28;20704;-87
2023/01/20 07:13:43;;;;;;;10.23;6.33;;;;;;;18.90;42.74;96940.53;4993913;28;20215;-87
2023/01/20 07:16:10;;;;;;;11.57;7.00;;;;;;;18.59;42.81;96886.97;4991632;28;20666;-87
2023/01/20 07:18:40;;;;;;;8.20;6.13;;;;;;;19.57;42.98;97077.63;4966112;28;20222;-88
2023/01/20 07:21:09;;;;;;;7.87;5.83;;;;;;;15.20;43.27;96355.31;4963299;28;20226;-87
2023/01/20 07:23:35;;;;;;;7.03;5.83;;;;;;;19.58;43.49;97073.41;4990083;28;20218;-87
2023/01/20 07:26:10;;;;;;;5.63;5.10;;;;;;;18.45;43.67;96884.00;4976775;28;20686;-87
2023/01/20 07:28:36;;;;;;;6.87;5.50;;;;;;;17.67;44.08;96749.22;4977059;28;20210;-86
2023/01/20 07:31:06;;;;;;;7.03;5.57;;;;;;;18.58;44.25;96903.03;4986372;28;20269;-87
2023/01/20 07:33:33;;;;;;;7.63;5.30;;;;;;;19.33;44.17;97059.06;4986639;28;20223;-87
2023/01/20 07:36:00;;;;;;;7.03;5.23;;;;;;;17.53;43.94;96738.63;4964461;28;20203;-87
2023/01/20 07:38:28;;;;;;;6.47;5.63;;;;;;;19.60;44.00;97104.91;4989900;28;20208;-88
2023/01/20 07:41:02;;;;;;;7.67;5.97;;;;;;;18.58;44.00;96920.84;4993147;28;20240;-87
2023/01/20 07:43:30;;;;;;;7.20;5.37;;;;;;;19.57;43.91;97087.81;4988878;28;20720;-87
2023/01/20 07:46:00;;;;;;;8.83;5.53;;;;;;;18.35;44.04;96911.63;4996613;28;20199;-87
2023/01/20 07:48:29;;;;;;;7.47;5.50;;;;;;;18.85;44.26;96973.47;4970478;28;20206;-87
2023/01/20 07:51:04;;;;;;;6.07;4.83;;;;;;;19.60;44.32;97115.97;4981937;28;20649;-87
2023/01/20 07:53:32;;;;;;;8.60;4.90;;;;;;;19.08;44.58;97023.44;4988492;28;20690;-87
2023/01/20 07:56:00;;;;;;;10.03;5.20;;;;;;;14.99;44.60;96346.97;4975651;28;20226;-87
2023/01/20 07:58:27;;;;;;;5.43;4.70;;;;;;;18.69;44.69;96956.00;4989020;28;20646;-87
2023/01/20 08:00:54;;;;;;;6.67;4.90;;;;;;;17.80;44.83;96813.19;4980313;28;20199;-87
2023/01/20 08:03:21;;;;;;;8.90;4.77;;;;;;;18.24;44.96;96885.84;4974973;28;20225;-88
2023/01/20 08:05:48;;;;;;;5.87;4.63;;;;;;;19.60;44.63;97191.59;4996998;28;20217;-87
2023/01/20 08:08:15;;;;;;;8.90;4.93;;;;;;;18.51;44.93;96937.63;4981486;28;20281;-89
2023/01/20 08:10:41;;;;;;;7.00;4.33;;;;;;;19.07;44.81;97034.41;4984090;28;20211;-90
2023/01/20 08:13:08;;;;;;;5.77;4.77;;;;;;;18.47;45.46;96938.31;4989648;28;20203;-87
2023/01/20 08:15:34;;;;;;;7.43;4.60;;;;;;;18.32;44.83;96914.91;4987472;28;20278;-87
2023/01/20 08:18:01;;;;;;;5.20;4.20;;;;;;;19.00;45.40;97029.97;4967774;28;20297;-87
2023/01/20 08:20:27;;;;;;;5.67;4.60;;;;;;;18.63;45.33;96973.63;4991507;28;20294;-87
2023/01/20 08:22:54;;;;;;;7.93;4.30;;;;;;;17.73;45.36;96816.38;4973819;28;20292;-87
2023/01/20 08:25:20;;;;;;;6.47;4.60;;;;;;;17.97;45.46;96862.91;4974204;28;20680;-87
2023/01/20 08:27:48;;;;;;;6.90;4.60;;;;;;;16.11;45.40;96555.25;4968699;28;20411;-87
2023/01/20 08:30:15;;;;;;;6.47;4.17;;;;;;;17.74;45.43;96884.16;4974910;28;20249;-87
2023/01/20 08:32:41;;;;;;;4.70;4.20;;;;;;;19.01;45.21;97056.31;4968482;28;20195;-88
2023/01/20 08:35:08;;;;;;;8.27;4.67;;;;;;;16.50;45.60;96618.31;4987169;28;20223;-87
2023/01/20 08:37:35;;;;;;;5.50;4.10;;;;;;;18.66;45.47;96994.09;4985511;28;20238;-87
2023/01/20 08:40:07;;;;;;;6.43;4.27;;;;;;;17.43;45.63;96786.50;4970258;28;20210;-86
2023/01/20 08:42:34;;;;;;;5.83;4.20;;;;;;;17.38;45.27;96778.72;4984283;28;20269;-87
2023/01/20 08:45:01;;;;;;;6.73;4.60;;;;;;;19.24;45.75;97155.53;4988654;28;20231;-87
2023/01/20 08:47:27;;;;;;;8.90;4.27;;;;;;;15.16;45.62;96405.75;4990042;28;20591;-87
2023/01/20 08:49:54;;;;;;;4.20;3.67;;;;;;;14.46;45.88;96279.28;4990569;28;20216;-87
2023/01/20 08:52:21;;;;;;;5.17;4.37;;;;;;;17.79;45.81;96859.75;4972852;28;20227;-87
2023/01/20 08:54:51;;;;;;;4.77;4.13;;;;;;;18.92;45.93;97054.31;4972583;28;20269;-86
2023/01/20 08:57:18;;;;;;;5.47;3.90;;;;;;;19.61;45.82;97178.88;4970168;28;20247;-86
2023/01/20 08:59:46;;;;;;;4.47;3.90;;;;;;;18.06;45.97;96928.47;4985597;28;20214;-86
2023/01/20 09:02:12;;;;;;;5.10;3.73;;;;;;;15.81;45.51;96530.53;4953093;28;20231;-86
2023/01/20 09:04:39;;;;;;;4.90;4.00;;;;;;;19.07;46.16;97104.88;4958971;28;20223;-87
2023/01/20 09:07:06;;;;;;;5.30;4.17;;;;;;;19.24;46.15;97121.56;4974139;28;20293;-86
2023/01/20 09:09:33;;;;;;;8.00;4.00;;;;;;;13.44;45.81;96166.72;4971682;28;20218;-87
2023/01/20 09:12:00;;;;;;;5.40;4.07;;;;;;;19.47;45.92;97175.03;4962775;28;20241;-86
2023/01/20 09:14:27;;;;;;;7.73;4.00;;;;;;;14.11;46.06;96251.81;4974086;28;20224;-87
2023/01/20 09:16:53;;;;;;;7.13;4.07;;;;;;;19.62;46.20;97202.66;4991488;28;20229;-86
2023/01/20 09:19:20;;;;;;;5.47;3.93;;;;;;;19.26;46.20;97142.84;4987922;28;20210;-88
2023/01/20 09:21:46;;;;;;;5.03;3.97;;;;;;;17.92;45.83;96920.34;4978886;28;20286;-86
2023/01/20 09:24:13;;;;;;;4.97;3.80;;;;;;;19.43;45.98;97178.31;4969948;28;20263;-86
2023/01/20 09:26:39;;;;;;;5.97;3.60;;;;;;;13.35;45.99;96153.75;4958424;28;20579;-86
2023/01/20 09:29:11;;;;;;;4.93;4.03;;;;;;;14.45;45.97;96320.50;4998520;28;20245;-86
2023/01/20 09:31:39;;;;;;;4.80;3.90;;;;;;;17.42;46.07;96841.53;5004443;28;20294;-86
2023/01/20 09:34:06;;;;;;;6.33;3.67;;;;;;;19.62;46.13;97217.97;5015438;28;20287;-86
2023/01/20 09:36:32;;;;;;;4.83;3.80;;;;;;;17.61;46.45;96873.50;5002748;28;20207;-85
2023/01/20 09:44:52;;;;;;;5.27;3.93;;;;;;;19.60;46.33;97223.00;4980537;28;20242;-87
2023/01/20 09:47:31;;;;;;;5.03;3.90;;;;;;;19.60;46.43;97225.56;5004778;28;20210;-87
2023/01/20 09:53:22;;;;;;;4.17;3.77;;;;;;;17.42;46.25;96873.69;5009783;28;20754;-85
2023/01/20 09:56:03;;;;;;;4.00;3.60;;;;;;;19.61;46.36;97318.22;4982685;28;20209;-87
2023/01/20 09:58:51;;;;;;;4.50;3.77;;;;;;;18.31;46.43;97008.97;4997606;28;20203;-85
2023/01/20 10:01:23;;;;;;;6.73;3.90;;;;;;;19.61;46.31;97239.19;5005138;28;20215;-85
2023/01/20 10:04:19;;;;;;;4.30;3.90;;;;;;;18.34;46.29;97044.69;4998635;28;20231;-85
2023/01/20 10:06:53;;;;;;;3.77;3.47;;;;;;;18.61;46.44;97066.88;4993364;28;20203;-85
2023/01/20 10:09:35;;;;;;;4.03;3.63;;;;;;;19.60;46.36;97240.84;4984611;28;20230;-85
2023/01/20 10:12:15;;;;;;;4.10;3.57;;;;;;;13.86;46.41;96246.59;4997634;28;20204;-85
2023/01/20 10:14:44;;;;;;;4.53;3.90;;;;;;;19.04;46.28;97137.91;5008695;28;20261;-86
2023/01/20 10:17:15;;;;;;;4.73;3.60;;;;;;;19.62;46.30;97240.91;4980986;28;20275;-86
2023/01/20 10:19:48;;;;;;;5.17;3.97;;;;;;;19.46;46.27;97208.97;4980290;28;20261;-86
2023/01/20 10:22:16;;;;;;;4.70;3.90;;;;;;;19.60;46.38;97240.84;4998811;28;20231;-85
2023/01/20 10:24:51;;;;;;;4.67;3.67;;;;;;;19.12;46.29;97160.25;4988891;28;20262;-85
2023/01/20 10:27:18;;;;;;;4.43;3.67;;;;;;;16.70;46.03;96736.56;4980752;28;20230;-85
2023/01/20 10:29:48;;;;;;;3.90;3.60;;;;;;;14.80;46.41;96412.00;5001803;28;20274;-85
2023/01/20 10:32:31;;;;;;;4.13;3.73;;;;;;;19.61;46.63;97240.06;4965056;28;20212;-85
2023/01/20 10:35:00;;;;;;;4.60;3.90;;;;;;;17.88;46.34;96955.78;4996012;28;20235;-85
2023/01/20 10:37:27;;;;;;;4.37;3.97;;;;;;;19.29;46.32;97199.03;4992969;28;20215;-87
2023/01/20 10:40:02;;;;;;;3.70;3.40;;;;;;;18.87;46.47;97103.38;4970725;28;20623;-86
2023/01/20 10:42:29;;;;;;;3.73;3.40;;;;;;;14.16;46.52;96294.94;4967837;28;20285;-85
2023/01/20 10:44:56;;;;;;;3.90;3.60;;;;;;;19.60;46.95;97235.75;4973623;28;20309;-86
2023/01/20 10:47:42;;;;;;;4.17;3.77;;;;;;;19.61;46.66;97241.72;4951364;28;20275;-85
2023/01/20 10:50:20;;;;;;;3.40;3.10;;;;;;;19.60;46.76;97245.09;4975247;28;20627;-87
2023/01/20 10:53:05;;;;;;;5.97;3.60;;;;;;;19.61;46.57;97239.19;5006823;28;20238;-85
2023/01/20 10:55:41;;;;;;;3.90;3.60;;;;;;;19.60;46.67;97237.47;5013362;28;20222;-86
2023/01/20 10:58:21;;;;;;;4.07;3.53;;;;;;;13.85;46.46;96256.66;5002819;28;20722;-86
2023/01/20 11:00:48;;;;;;;3.80;3.50;;;;;;;13.11;46.75;96155.28;4974053;28;20203;-85
2023/01/20 11:03:17;;;;;;;3.60;3.30;;;;;;;17.60;46.61;96895.53;4989591;28;20238;-86
2023/01/20 11:05:44;;;;;;;3.70;3.27;;;;;;;19.24;46.43;97175.06;4972758;28;20223;-86
2023/01/20 11:08:25;;;;;;;3.60;3.30;;;;;;;16.19;46.57;96664.50;4980889;28;20301;-87
2023/01/20 11:10:54;;;;;;;3.60;3.30;;;;;;;18.68;46.63;97062.84;4988255;28;20253;-85
2023/01/20 11:13:20;;;;;;;3.80;3.40;;;;;;;18.81;46.59;97100.63;4979119;28;20609;-85
2023/01/20 11:15:48;;;;;;;4.53;3.93;;;;;;;19.60;46.68;97240.00;4968203;28;20361;-85
2023/01/20 11:18:15;;;;;;;4.40;3.60;;;;;;;19.61;46.50;97239.19;4975387;28;20257;-86
2023/01/20 11:20:55;;;;;;;5.77;3.97;;;;;;;19.25;46.54;97169.16;4987183;28;20203;-86
2023/01/20 11:23:37;;;;;;;4.57;3.70;;;;;;;19.60;46.68;97240.00;4992447;28;20217;-85
2023/01/20 11:26:17;;;;;;;4.23;3.70;;;;;;;19.60;46.72;97245.94;4992788;28;20758;-84
2023/01/20 11:28:48;;;;;;;4.10;3.70;;;;;;;19.61;46.61;97242.59;4975565;28;20646;-84
2023/01/20 11:31:14;;;;;;;4.57;4.17;;;;;;;17.93;46.52;96947.53;4995726;28;20264;-84
2023/01/20 11:33:53;;;;;;;4.60;3.67;;;;;;;19.08;46.77;97152.44;4981425;28;20226;-84
2023/01/20 11:36:22;;;;;;;4.60;4.07;;;;;;;19.27;46.86;97190.50;4972783;28;20202;-86
2023/01/20 11:38:49;;;;;;;4.20;3.77;;;;;;;18.92;46.67;97122.22;4973404;28;20209;-85
2023/01/20 11:41:26;;;;;;;4.47;3.93;;;;;;;18.17;46.54;97003.41;4979774;28;20198;-85
2023/01/20 11:43:57;;;;;;;3.97;3.63;;;;;;;17.94;46.63;96999.22;4979937;28;20214;-85
2023/01/20 11:46:28;;;;;;;4.70;4.20;;;;;;;19.61;46.80;97237.50;4993613;28;20199;-85
2023/01/20 11:49:16;;;;;;;5.10;4.10;;;;;;;19.61;46.64;97247.72;4997627;28;20203;-85
2023/01/20 11:51:48;;;;;;;4.50;4.10;;;;;;;19.61;46.73;97239.19;4996217;28;20214;-89
2023/01/20 11:54:17;;;;;;;5.20;4.33;;;;;;;17.64;46.82;96896.50;4993554;28;20667;-88
2023/01/20 11:56:45;;;;;;;4.83;4.10;;;;;;;19.61;46.84;97257.91;4976333;28;20235;-88